This is the latest recevied weather packets stored in our database for station/object HR1LRC-21. If no packets are shown the sender has not sent any weather packets the latest 10 day(s).
| Time | Temp. | Humidity | Pressure | Rain* | Wind** | Luminosity | Snow |
|---|---|---|---|---|---|---|---|
| 1778097618 | 30° C | 25% | 1009 hPa | 0 mm | - | - | - |
| 1778097018 | 30° C | 25% | 1009 hPa | 0 mm | - | - | - |
| 1778096417 | 30° C | 25% | 1009 hPa | 0 mm | - | - | - |
| 1778095817 | 30° C | 25% | 1010 hPa | 0 mm | - | - | - |
| 1778095216 | 27.78° C | 28% | 1011 hPa | 0 mm | - | - | - |
| 1778094616 | 27.78° C | 27% | 1011 hPa | 0 mm | - | - | - |
| 1778094015 | 27.78° C | 26% | 1011 hPa | 0 mm | - | - | - |
| 1778093414 | 27.78° C | 26% | 1011 hPa | 0 mm | - | - | - |
| 1778092814 | 27.78° C | 26% | 1011 hPa | 0 mm | - | - | - |
| 1778092213 | 27.22° C | 28% | 1011 hPa | 0 mm | - | - | - |
| 1778091612 | 26.67° C | 33% | 1012 hPa | 0 mm | - | - | - |
| 1778091012 | 26.67° C | 33% | 1012 hPa | 0 mm | - | - | - |
| 1778090411 | 26.11° C | 32% | 1012 hPa | 0 mm | - | - | - |
| 1778089811 | 26.11° C | 32% | 1012 hPa | 0 mm | - | - | - |
| 1778088563 | 25° C | 38% | 1013 hPa | 0 mm | - | - | - |
| 1778087962 | 25° C | 38% | 1013 hPa | 0 mm | - | - | - |
| 1778087362 | 25° C | 37% | 1013 hPa | 0 mm | - | - | - |
| 1778086761 | 25° C | 36% | 1013 hPa | 0 mm | - | - | - |
| 1778086160 | 25° C | 36% | 1013 hPa | 0 mm | - | - | - |
| 1778085560 | 24.44° C | 39% | 1013 hPa | 0 mm | - | - | - |
| 1778084959 | 23.89° C | 46% | 1014 hPa | 0 mm | - | - | - |
| 1778084374 | 23.89° C | 46% | 1014 hPa | 0 mm | - | - | - |
| 1778083774 | 23.33° C | 46% | 1014 hPa | 0 mm | - | - | - |
| 1778083173 | 23.33° C | 46% | 1014 hPa | 0 mm | - | - | - |
| 1778082573 | 23.33° C | 46% | 1014 hPa | 0 mm | - | - | - |
* Rain latest hour (hover to see other rain measurements)
** Current wind speed in m/s (hover to see current wind gust speed)